Terminal Aerodrome Forecast
Issued by NWS Sioux Falls, SD

Home | Current Version | Previous Version | Graphics & Text | Print | Product List | Glossary Off
Versions: 1 2 3 4 5 6 7 8 9 10 11 12 13 14 15 16

000
FTUS43 KFSD 191524 AAA
TAFFSD
TAF AMD
KFSD 191524Z 1915/2012 31017KT P6SM OVC035
     FM192300 29009KT P6SM BKN030
     FM200600 30006KT P6SM SCT030=

USA.gov is the U.S. government's official web portal to all federal, state and local government web resources and services.